createdAt,value
2024-01-05T00:01:00.515Z,95704.38
2024-01-05T00:06:03.976Z,95705.22
2024-01-05T00:11:07.229Z,95708.00
2024-01-05T00:16:18.920Z,95691.75
2024-01-05T00:21:23.001Z,95691.41
2024-01-05T00:26:26.743Z,95692.22
2024-01-05T00:31:31.528Z,95693.00
2024-01-05T00:36:34.991Z,95700.63
2024-01-05T00:41:38.393Z,95689.41
2024-01-05T00:46:44.034Z,95683.75
2024-01-05T00:51:47.714Z,95689.19
2024-01-05T00:56:51.043Z,95691.78
2024-01-05T01:01:55.751Z,95694.41
2024-01-05T01:06:59.042Z,95682.94
2024-01-05T01:12:02.491Z,95677.34
2024-01-05T01:17:07.384Z,95673.94
2024-01-05T01:22:10.818Z,95677.31
2024-01-05T01:27:14.421Z,95681.50
2024-01-05T01:32:19.213Z,95651.56
2024-01-05T01:37:22.578Z,95648.56
2024-01-05T01:42:26.390Z,95639.94
2024-01-05T01:47:31.397Z,95651.25
2024-01-05T01:52:34.740Z,95637.25
2024-01-05T01:57:39.013Z,95626.03
2024-01-05T02:02:43.931Z,95622.22
2024-01-05T02:07:47.276Z,95615.16
2024-01-05T02:12:50.596Z,95607.78
2024-01-05T02:17:55.750Z,95601.78
2024-01-05T02:23:02.746Z,95593.94
2024-01-05T02:28:07.880Z,95584.31
2024-01-05T02:33:11.384Z,95578.31
2024-01-05T02:38:14.681Z,95589.13
2024-01-05T02:43:19.439Z,95579.50
2024-01-05T02:48:23.032Z,95570.09
2024-01-05T02:53:26.405Z,95562.06
2024-01-05T02:58:31.064Z,95579.91
2024-01-05T03:03:34.432Z,95570.47
2024-01-05T03:08:37.800Z,95563.22
2024-01-05T03:13:42.634Z,95548.19
2024-01-05T03:18:46.183Z,95535.41
2024-01-05T03:23:49.525Z,95514.72
2024-01-05T03:28:54.541Z,95509.09
2024-01-05T03:33:57.908Z,95513.50
2024-01-05T03:39:02.959Z,95493.03
2024-01-05T03:44:07.733Z,95494.22
2024-01-05T03:49:11.042Z,95505.22
2024-01-05T03:54:14.414Z,95495.66
2024-01-05T03:59:19.514Z,95491.22
2024-01-05T04:04:23.062Z,95484.34
2024-01-05T04:09:26.461Z,95480.50
2024-01-05T04:14:31.163Z,95472.50
2024-01-05T04:19:34.757Z,95473.06
2024-01-05T04:24:38.179Z,95476.47
2024-01-05T04:29:42.943Z,95470.13
2024-01-05T04:34:46.287Z,95466.88
2024-01-05T04:39:52.026Z,95465.25
2024-01-05T04:44:57.279Z,95458.44
2024-01-05T04:50:00.807Z,95437.94
2024-01-05T04:55:04.697Z,95429.50
2024-01-05T05:00:10.628Z,95433.75
2024-01-05T05:05:14.016Z,95430.53
2024-01-05T05:10:17.481Z,95433.78
2024-01-05T05:15:22.472Z,95437.06
2024-01-05T05:20:26.030Z,95435.88
2024-01-05T05:25:29.552Z,95429.03
2024-01-05T05:30:34.853Z,95419.19
2024-01-05T05:35:38.268Z,95418.84
2024-01-05T05:40:41.602Z,95425.06
2024-01-05T05:45:46.405Z,95434.09
2024-01-05T05:50:49.804Z,95426.69
2024-01-05T05:55:53.486Z,95423.88
2024-01-05T06:00:58.317Z,95433.91
2024-01-05T06:06:01.912Z,95434.50
2024-01-05T06:11:05.474Z,95445.34
2024-01-05T06:16:10.723Z,95444.94
2024-01-05T06:21:14.061Z,95439.09
2024-01-05T06:26:17.371Z,95438.28
2024-01-05T06:31:24.390Z,95435.78
2024-01-05T06:36:27.745Z,95444.34
2024-01-05T06:41:31.129Z,95438.09
2024-01-05T06:46:36.152Z,95441.88
2024-01-05T06:51:39.789Z,95444.47
2024-01-05T06:56:43.843Z,95456.13
2024-01-05T07:01:49.496Z,95459.53
2024-01-05T07:06:52.907Z,95449.25
2024-01-05T07:11:56.387Z,95456.47
2024-01-05T07:17:01.611Z,95447.22
2024-01-05T07:22:05.355Z,95461.63
2024-01-05T07:27:10.530Z,95472.81
2024-01-05T07:32:15.757Z,95473.44
2024-01-05T07:37:19.756Z,95484.81
2024-01-05T07:42:23.124Z,95480.34
2024-01-05T07:47:28.499Z,95479.56
2024-01-05T07:52:31.860Z,95478.53
2024-01-05T07:57:35.345Z,95475.28
2024-01-05T08:02:40.681Z,95476.72
2024-01-05T08:07:46.358Z,95476.75
2024-01-05T08:12:49.866Z,95470.56
2024-01-05T08:17:55.590Z,95464.69
2024-01-05T08:22:59.307Z,95464.63
2024-01-05T08:28:03.688Z,95473.25
2024-01-05T08:33:08.995Z,95469.28
2024-01-05T08:38:12.557Z,95472.69
2024-01-05T08:43:15.848Z,95477.47
2024-01-05T08:48:20.647Z,95466.53
2024-01-05T08:53:24.161Z,95469.69
2024-01-05T08:58:28.569Z,95461.19
2024-01-05T09:03:33.680Z,95449.97
2024-01-05T09:08:37.057Z,95462.38
2024-01-05T09:13:40.497Z,95460.91
2024-01-05T09:18:45.472Z,95462.91
2024-01-05T09:23:48.764Z,95472.13
2024-01-05T09:28:52.695Z,95502.44
2024-01-05T09:33:58.166Z,95502.44
2024-01-05T09:39:01.777Z,95509.44
2024-01-05T09:44:06.079Z,95505.38
2024-01-05T09:49:11.436Z,95498.09
2024-01-05T09:54:15.235Z,95498.06
2024-01-05T09:59:19.026Z,95495.59
2024-01-05T10:04:24.020Z,95492.31
2024-01-05T10:09:27.929Z,95486.66
2024-01-05T10:14:31.398Z,95482.81
2024-01-05T10:19:36.581Z,95474.75
2024-01-05T10:24:40.264Z,95476.22
2024-01-05T10:29:45.661Z,95487.47
2024-01-05T10:34:51.877Z,95467.34
2024-01-05T10:39:55.807Z,95469.53
2024-01-05T10:45:01.369Z,95469.53
2024-01-05T10:50:08.905Z,95471.84
2024-01-05T10:55:12.949Z,95451.91
2024-01-05T11:00:17.131Z,95448.38
2024-01-05T11:05:22.580Z,95449.13
2024-01-05T11:10:33.296Z,95440.38
2024-01-05T11:15:50.354Z,95430.94
2024-01-05T11:21:06.034Z,95412.63
2024-01-05T11:26:10.081Z,95409.94
2024-01-05T11:31:13.686Z,95414.28
2024-01-05T11:36:57.405Z,95399.06
2024-01-05T11:42:00.764Z,95397.50
2024-01-05T11:47:04.478Z,95411.28
2024-01-05T11:52:09.624Z,95413.50
2024-01-05T11:57:12.984Z,95408.69
2024-01-05T12:02:19.592Z,95402.66
2024-01-05T12:07:27.222Z,95402.06
2024-01-05T12:12:30.704Z,95401.03
2024-01-05T12:17:34.376Z,95384.78
2024-01-05T12:22:39.084Z,95382.38
2024-01-05T12:27:42.846Z,95378.16
2024-01-05T12:32:46.528Z,95363.50
2024-01-05T12:37:54.824Z,95348.69
2024-01-05T12:42:58.205Z,95356.72
2024-01-05T12:48:12.153Z,95352.03
2024-01-05T12:53:21.280Z,95352.03
2024-01-05T12:58:25.225Z,95351.25
2024-01-05T13:03:28.696Z,95351.09
2024-01-05T13:08:36.469Z,95341.19
2024-01-05T13:13:40.022Z,95329.72
2024-01-05T13:18:43.982Z,95333.56
2024-01-05T13:23:53.533Z,95333.34
2024-01-05T13:28:57.164Z,95334.91
2024-01-05T13:34:00.859Z,95331.63
2024-01-05T13:39:07.422Z,95328.91
2024-01-05T13:44:10.916Z,95323.34
2024-01-05T13:49:14.221Z,95327.78
2024-01-05T13:54:19.104Z,95338.88
2024-01-05T13:59:22.440Z,95337.19
2024-01-05T14:04:25.869Z,95336.50
2024-01-05T14:09:30.761Z,95341.72
2024-01-05T14:14:34.329Z,95335.94
2024-01-05T14:19:37.746Z,95329.66
2024-01-05T14:24:43.016Z,95319.28
2024-01-05T14:29:46.366Z,95321.09
2024-01-05T14:34:49.657Z,95318.94
2024-01-05T14:39:54.323Z,95314.97
2024-01-05T14:44:58.038Z,95318.28
2024-01-05T14:50:01.346Z,95316.09
2024-01-05T14:55:07.369Z,95317.34
2024-01-05T15:00:12.279Z,95324.16
2024-01-05T15:05:16.053Z,95323.16
2024-01-05T15:10:20.920Z,95320.19
2024-01-05T15:15:24.487Z,95314.38
2024-01-05T15:20:28.315Z,95322.22
2024-01-05T15:25:33.067Z,95321.72
2024-01-05T15:30:36.834Z,95319.78
2024-01-05T15:35:40.334Z,95323.63
2024-01-05T15:40:45.150Z,95318.63
2024-01-05T15:45:48.929Z,95320.81
2024-01-05T15:50:52.768Z,95308.41
2024-01-05T15:55:59.300Z,95314.09
2024-01-05T16:01:03.063Z,95310.75
2024-01-05T16:06:11.519Z,95309.59
2024-01-05T16:11:16.638Z,95310.63
2024-01-05T16:16:22.460Z,95324.50
2024-01-05T16:21:28.115Z,95323.56
2024-01-05T16:26:32.853Z,95307.16
2024-01-05T16:31:36.235Z,95316.94
2024-01-05T16:36:39.634Z,95321.94
2024-01-05T16:41:44.295Z,95316.72
2024-01-05T16:46:47.506Z,95315.50
2024-01-05T16:51:51.231Z,95325.72
2024-01-05T16:56:56.517Z,95326.38
2024-01-05T17:01:59.980Z,95331.72
2024-01-05T17:07:03.304Z,95326.13
2024-01-05T17:12:08.623Z,95326.97
2024-01-05T17:17:11.876Z,95329.59
2024-01-05T17:22:15.370Z,95320.72
2024-01-05T17:27:20.599Z,95329.28
2024-01-05T17:32:24.003Z,95329.88
2024-01-05T17:37:27.612Z,95332.13
2024-01-05T17:42:32.322Z,95331.13
2024-01-05T17:47:35.848Z,95328.00
2024-01-05T17:52:39.166Z,95332.50
2024-01-05T17:57:44.042Z,95335.91
2024-01-05T18:02:47.605Z,95339.69
2024-01-05T18:07:54.426Z,95332.00
2024-01-05T18:12:59.251Z,95332.81
2024-01-05T18:18:02.823Z,95333.78
2024-01-05T18:23:06.591Z,95343.69
2024-01-05T18:28:11.500Z,95357.75
2024-01-05T18:33:15.118Z,95356.38
2024-01-05T18:38:18.615Z,95355.81
2024-01-05T18:43:24.098Z,95345.00
2024-01-05T18:48:27.582Z,95341.22
2024-01-05T18:53:31.021Z,95341.22
2024-01-05T18:58:37.110Z,95342.03
2024-01-05T19:03:40.552Z,95346.75
2024-01-05T19:08:43.834Z,95350.84
2024-01-05T19:13:48.593Z,95347.88
2024-01-05T19:18:52.232Z,95353.47
2024-01-05T19:23:55.700Z,95352.81
2024-01-05T19:29:00.547Z,95362.25
2024-01-05T19:34:04.025Z,95358.41
2024-01-05T19:39:09.606Z,95360.41
2024-01-05T19:44:17.350Z,95367.91
2024-01-05T19:49:20.816Z,95364.16
2024-01-05T19:54:24.151Z,95372.97
2024-01-05T19:59:29.326Z,95380.00
2024-01-05T20:04:32.677Z,95384.66
2024-01-05T20:09:36.109Z,95378.84
2024-01-05T20:14:41.641Z,95386.66
2024-01-05T20:19:45.659Z,95378.78
2024-01-05T20:24:49.070Z,95374.31
2024-01-05T20:29:54.231Z,95373.84
2024-01-05T20:34:57.518Z,95370.81
2024-01-05T20:40:01.507Z,95383.63
2024-01-05T20:45:08.827Z,95385.81
2024-01-05T20:50:12.248Z,95376.97
2024-01-05T20:55:15.854Z,95365.72
2024-01-05T21:00:22.060Z,95371.75
2024-01-05T21:05:26.435Z,95374.03
2024-01-05T21:10:29.693Z,95375.66
2024-01-05T21:15:34.628Z,95377.13
2024-01-05T21:20:37.934Z,95380.16
2024-01-05T21:25:41.139Z,95372.31
2024-01-05T21:30:45.947Z,95368.19
2024-01-05T21:35:50.547Z,95376.22
2024-01-05T21:40:53.876Z,95379.44
2024-01-05T21:45:59.783Z,95374.41
2024-01-05T21:51:03.191Z,95378.91
2024-01-05T21:56:09.219Z,95376.31
2024-01-05T22:01:14.147Z,95376.72
2024-01-05T22:06:17.597Z,95366.34
2024-01-05T22:11:21.135Z,95369.19
2024-01-05T22:16:26.166Z,95383.41
2024-01-05T22:21:29.680Z,95381.34
2024-01-05T22:26:35.299Z,95389.03
2024-01-05T22:31:40.265Z,95391.66
2024-01-05T22:36:44.499Z,95405.72
2024-01-05T22:41:47.887Z,95409.53
2024-01-05T22:46:52.623Z,95407.81
2024-01-05T22:51:56.136Z,95415.13
2024-01-05T22:56:59.420Z,95419.50
2024-01-05T23:02:04.926Z,95425.06
2024-01-05T23:07:08.616Z,95440.03
2024-01-05T23:12:12.508Z,95440.56
2024-01-05T23:17:17.184Z,95439.91
2024-01-05T23:22:20.796Z,95430.03
2024-01-05T23:27:24.569Z,95440.28
2024-01-05T23:32:29.708Z,95437.69
2024-01-05T23:37:33.186Z,95442.47
2024-01-05T23:42:36.686Z,95436.81
2024-01-05T23:47:41.805Z,95443.19
2024-01-05T23:52:45.430Z,95440.94
2024-01-05T23:57:48.813Z,95440.94
